createdAt,value
2022-12-25T00:00:32.599Z,11.70
2022-12-25T00:01:32.529Z,10.90
2022-12-25T00:02:32.616Z,16.20
2022-12-25T00:03:32.499Z,13.00
2022-12-25T00:04:32.432Z,16.70
2022-12-25T00:05:32.277Z,13.50
2022-12-25T00:06:32.285Z,13.90
2022-12-25T00:07:32.161Z,12.60
2022-12-25T00:09:15.477Z,10.20
2022-12-25T00:10:15.478Z,14.70
2022-12-25T00:11:15.445Z,13.30
2022-12-25T00:12:15.363Z,9.60
2022-12-25T00:13:15.370Z,12.00
2022-12-25T00:14:15.242Z,15.50
2022-12-25T00:15:15.248Z,15.50
2022-12-25T00:16:15.286Z,15.40
2022-12-25T00:17:15.124Z,12.70
2022-12-25T00:18:15.161Z,7.50
2022-12-25T00:19:15.013Z,13.30
2022-12-25T00:20:15.030Z,9.50
2022-12-25T00:21:15.010Z,8.80
2022-12-25T00:22:14.892Z,10.30
2022-12-25T00:23:14.892Z,8.00
2022-12-25T00:24:14.771Z,11.60
2022-12-25T00:25:14.770Z,15.80
2022-12-25T00:26:15.237Z,10.20
2022-12-25T00:27:14.660Z,9.90
2022-12-25T00:28:14.656Z,11.40
2022-12-25T00:29:14.656Z,9.40
2022-12-25T00:30:14.538Z,10.30
2022-12-25T00:31:14.702Z,12.30
2022-12-25T00:32:14.506Z,11.20
2022-12-25T00:33:14.422Z,11.20
2022-12-25T00:34:14.425Z,13.60
2022-12-25T00:35:14.310Z,12.60
2022-12-25T00:36:14.328Z,10.90
2022-12-25T00:37:14.300Z,13.10
2022-12-25T00:38:14.186Z,11.10
2022-12-25T00:39:14.186Z,14.50
2022-12-25T00:41:14.074Z,12.70
2022-12-25T00:42:14.067Z,8.90
2022-12-25T00:43:13.952Z,8.40
2022-12-25T00:44:14.165Z,9.10
2022-12-25T00:45:15.936Z,8.80
2022-12-25T00:46:14.087Z,7.30
2022-12-25T00:47:13.875Z,9.20
2022-12-25T00:48:13.803Z,12.30
2022-12-25T00:49:13.716Z,9.10
2022-12-25T00:50:13.715Z,11.90
2022-12-25T00:51:13.608Z,11.00
2022-12-25T00:52:13.633Z,9.10
2022-12-25T00:53:13.598Z,8.30
2022-12-25T00:54:13.602Z,7.30
2022-12-25T00:55:13.488Z,10.00
2022-12-25T00:56:13.460Z,10.00
2022-12-25T00:57:13.452Z,11.10
2022-12-25T00:58:13.372Z,9.30
2022-12-25T00:59:13.337Z,10.70
2022-12-25T01:00:13.342Z,10.60
2022-12-25T01:01:13.374Z,11.20
2022-12-25T01:02:13.325Z,9.30
2022-12-25T01:03:13.270Z,10.30
2022-12-25T01:04:13.352Z,11.30
2022-12-25T01:05:13.234Z,10.20
2022-12-25T01:06:13.220Z,9.10
2022-12-25T01:07:13.129Z,7.60
2022-12-25T01:08:13.010Z,7.60
2022-12-25T01:09:12.992Z,7.40
2022-12-25T01:10:12.885Z,5.90
2022-12-25T01:11:12.891Z,12.40
2022-12-25T01:12:12.886Z,10.00
2022-12-25T01:13:12.748Z,9.50
2022-12-25T01:14:12.774Z,7.80
2022-12-25T01:15:12.637Z,10.70
2022-12-25T01:16:12.694Z,9.50
2022-12-25T01:17:12.638Z,7.10
2022-12-25T01:18:13.099Z,8.00
2022-12-25T01:19:12.523Z,8.40
2022-12-25T01:20:12.547Z,8.70
2022-12-25T18:37:13.366Z,6.00
2022-12-25T18:38:13.345Z,7.70
2022-12-25T18:39:13.216Z,7.70
2022-12-25T18:40:13.223Z,10.30
2022-12-25T18:41:13.226Z,9.10
2022-12-25T18:42:13.126Z,7.80
2022-12-25T18:43:13.107Z,8.30
2022-12-25T18:44:12.982Z,6.90
2022-12-25T18:45:12.983Z,9.30
2022-12-25T18:46:13.031Z,9.20
2022-12-25T18:47:12.865Z,9.10
2022-12-25T18:48:12.865Z,8.30
2022-12-25T18:49:12.745Z,6.80
2022-12-25T18:50:12.745Z,8.50
2022-12-25T18:51:12.750Z,7.20
2022-12-25T18:52:50.226Z,6.80
2022-12-25T18:53:12.629Z,8.80
2022-12-25T18:54:12.511Z,8.40
2022-12-25T18:55:12.450Z,7.60
2022-12-25T18:56:12.524Z,7.30
2022-12-25T18:57:12.329Z,9.10
2022-12-25T18:58:12.396Z,8.00
2022-12-25T18:59:12.379Z,8.60
2022-12-25T19:00:12.224Z,8.30
2022-12-25T19:01:12.289Z,8.10
2022-12-25T19:02:12.165Z,8.60
2022-12-25T19:03:12.151Z,7.70
2022-12-25T19:04:12.099Z,11.80
2022-12-25T19:05:11.997Z,7.90
2022-12-25T19:06:11.977Z,9.70
2022-12-25T19:07:11.962Z,9.00
2022-12-25T19:08:11.854Z,8.00
2022-12-25T19:09:11.873Z,9.30
2022-12-25T19:10:11.773Z,8.70
2022-12-25T19:11:11.745Z,10.20
2022-12-25T19:12:11.749Z,11.90
2022-12-25T19:13:11.616Z,10.30
2022-12-25T19:14:11.622Z,10.70
2022-12-25T19:15:11.631Z,9.20
2022-12-25T19:16:11.695Z,11.00
2022-12-25T19:17:11.500Z,11.20
2022-12-25T19:18:11.388Z,10.70
2022-12-25T19:19:11.428Z,8.70
2022-12-25T19:20:11.388Z,10.70
2022-12-25T19:21:11.268Z,9.30
2022-12-25T19:22:11.261Z,9.10
2022-12-25T19:23:11.235Z,9.70
2022-12-25T19:25:09.602Z,10.70
2022-12-25T19:26:09.607Z,9.00
2022-12-25T19:27:09.459Z,10.10
2022-12-25T19:28:09.476Z,16.90
2022-12-25T19:29:09.468Z,12.60
2022-12-25T19:30:09.343Z,8.60
2022-12-25T19:31:09.491Z,9.80
2022-12-25T19:32:09.481Z,10.60
2022-12-25T19:33:14.096Z,8.30
2022-12-25T19:34:09.227Z,10.20
2022-12-25T19:35:09.224Z,8.50
2022-12-25T19:36:09.132Z,9.40
2022-12-25T19:37:09.117Z,9.30
2022-12-25T19:38:08.994Z,8.70
2022-12-25T19:39:09.013Z,9.00
2022-12-25T19:40:08.998Z,8.70
2022-12-25T19:41:08.916Z,11.20
2022-12-25T19:42:08.895Z,9.70
2022-12-25T19:43:08.873Z,10.00
2022-12-25T19:44:08.762Z,8.90
2022-12-25T19:45:08.762Z,10.20
2022-12-25T19:46:08.921Z,9.50
2022-12-25T19:47:08.643Z,8.50
2022-12-25T19:48:08.645Z,9.60
2022-12-25T19:49:08.525Z,9.10
2022-12-25T19:50:08.532Z,10.50
2022-12-25T19:51:08.529Z,9.90
2022-12-25T19:52:08.412Z,9.60
2022-12-25T19:53:08.617Z,8.80
2022-12-25T19:54:08.405Z,12.70
2022-12-25T19:55:08.289Z,8.20
2022-12-25T19:56:08.297Z,11.10
2022-12-25T19:57:08.188Z,10.20
2022-12-25T19:58:08.192Z,9.20
2022-12-25T19:59:08.177Z,10.20
2022-12-25T20:00:08.164Z,9.70
2022-12-25T20:01:08.105Z,8.00
2022-12-25T20:02:08.296Z,8.20
2022-12-25T20:03:08.051Z,10.50
2022-12-25T20:04:07.951Z,9.90
2022-12-25T20:05:07.937Z,11.40
2022-12-25T20:06:07.826Z,10.10
2022-12-25T20:07:07.823Z,9.30
2022-12-25T20:08:07.702Z,9.90
2022-12-25T20:09:07.708Z,13.40
2022-12-25T20:10:07.709Z,9.30
2022-12-25T20:11:07.585Z,9.90
2022-12-25T20:12:07.588Z,8.80
2022-12-25T20:13:07.601Z,8.70
2022-12-25T20:14:07.566Z,10.80
2022-12-25T20:15:07.562Z,10.30
2022-12-25T20:16:07.516Z,9.50
2022-12-25T20:17:13.644Z,11.70
2022-12-25T20:18:07.350Z,13.40
2022-12-25T20:19:07.321Z,11.30
2022-12-25T20:20:07.322Z,12.60
2022-12-25T20:21:07.233Z,11.00
2022-12-25T20:22:07.206Z,9.70
2022-12-25T20:23:07.215Z,13.50
2022-12-25T20:24:07.213Z,11.50
2022-12-25T20:25:07.085Z,14.50
2022-12-25T20:26:07.089Z,12.90
2022-12-25T20:27:06.969Z,10.90
2022-12-25T20:28:06.973Z,11.60
2022-12-25T20:29:07.003Z,13.20
2022-12-25T20:30:06.882Z,15.00
2022-12-25T20:31:06.858Z,14.10
2022-12-25T20:32:06.982Z,18.10
2022-12-25T20:33:06.856Z,15.50
2022-12-25T20:34:06.855Z,14.00
2022-12-25T20:35:06.738Z,13.60
2022-12-25T20:36:06.620Z,20.00
2022-12-25T20:37:06.752Z,13.30
2022-12-25T20:38:06.527Z,17.00
2022-12-25T20:39:06.507Z,14.00
2022-12-25T20:40:06.529Z,14.70
2022-12-25T20:42:06.388Z,16.50
2022-12-25T20:43:06.396Z,18.30
2022-12-25T20:44:06.267Z,15.70
2022-12-25T20:45:06.413Z,17.20
2022-12-25T20:46:06.439Z,15.90
2022-12-25T20:47:06.390Z,16.50
2022-12-25T20:48:06.269Z,17.80
2022-12-25T20:49:06.280Z,16.20
2022-12-25T20:50:06.276Z,16.00
2022-12-25T20:51:06.153Z,16.30
2022-12-25T20:52:06.160Z,15.40
2022-12-25T20:53:06.041Z,16.20
2022-12-25T20:54:05.917Z,15.60
2022-12-25T20:55:05.798Z,13.30
2022-12-25T20:56:05.682Z,11.60
2022-12-25T20:57:05.799Z,14.40
2022-12-25T20:58:05.686Z,16.10
2022-12-25T20:59:05.564Z,15.00
2022-12-25T21:00:05.692Z,14.40
2022-12-25T21:01:05.497Z,14.30
2022-12-25T21:02:05.620Z,13.40
2022-12-25T21:03:05.651Z,12.80
2022-12-25T21:04:05.348Z,12.20
2022-12-25T21:05:05.330Z,12.60
2022-12-25T21:06:06.309Z,12.60
2022-12-25T21:07:05.219Z,12.00
2022-12-25T21:08:05.214Z,12.70
2022-12-25T21:09:05.217Z,12.20
2022-12-25T21:11:05.102Z,12.30
2022-12-25T21:12:04.975Z,10.80
2022-12-25T21:13:04.977Z,11.00
2022-12-25T21:14:04.987Z,12.30
2022-12-25T21:15:06.861Z,11.40
2022-12-25T21:16:04.860Z,11.00
2022-12-25T21:17:04.915Z,12.20
2022-12-25T21:18:04.740Z,12.60
2022-12-25T21:19:04.741Z,9.50
2022-12-25T21:20:04.643Z,12.90
2022-12-25T21:21:04.643Z,12.60
2022-12-25T21:22:04.626Z,10.50
2022-12-25T21:23:04.522Z,9.60
2022-12-25T21:24:04.541Z,9.40
2022-12-25T21:25:04.540Z,10.70
2022-12-25T21:26:04.406Z,11.10
2022-12-25T21:27:04.394Z,10.80
2022-12-25T21:28:04.445Z,10.50
2022-12-25T21:29:04.280Z,10.60
2022-12-25T21:30:15.794Z,10.20
2022-12-25T21:31:04.334Z,10.30
2022-12-25T21:32:04.540Z,10.10
2022-12-25T21:33:04.779Z,11.60
2022-12-25T21:34:04.282Z,12.80
2022-12-25T21:35:04.043Z,12.20
2022-12-25T21:36:04.042Z,11.20
2022-12-25T21:37:03.923Z,10.90
2022-12-25T21:38:03.856Z,10.90
2022-12-25T21:39:03.811Z,12.00
2022-12-25T21:40:03.802Z,12.20
2022-12-25T21:41:03.739Z,10.80
2022-12-25T21:42:03.619Z,11.50
2022-12-25T21:43:03.689Z,9.80
2022-12-25T21:44:03.620Z,12.40
2022-12-25T21:45:03.509Z,13.00
2022-12-25T21:46:03.541Z,10.70
2022-12-25T21:47:03.408Z,11.60
2022-12-25T21:48:03.783Z,13.40
2022-12-25T21:49:03.421Z,9.50
2022-12-25T21:50:03.259Z,12.20
2022-12-25T21:51:03.265Z,9.90
2022-12-25T21:52:03.262Z,11.30
2022-12-25T21:53:03.143Z,12.00
2022-12-25T21:54:03.151Z,9.60
2022-12-25T21:55:03.028Z,10.90
2022-12-25T21:56:03.026Z,11.00
2022-12-25T21:57:03.033Z,12.10
2022-12-25T21:58:02.912Z,10.30
2022-12-25T21:59:02.907Z,12.70
2022-12-25T22:00:02.910Z,11.10
2022-12-25T22:01:02.815Z,12.70
2022-12-25T22:02:02.889Z,11.60
2022-12-25T22:03:02.807Z,12.00
2022-12-25T22:04:02.672Z,12.00
2022-12-25T22:05:02.687Z,11.30
2022-12-25T22:07:02.544Z,11.00
2022-12-25T22:08:02.549Z,9.90
2022-12-25T22:09:02.430Z,11.50
2022-12-25T22:10:02.442Z,11.10
2022-12-25T22:11:02.416Z,12.20
2022-12-25T22:12:02.331Z,10.70
2022-12-25T22:13:02.379Z,13.60
2022-12-25T22:14:02.211Z,13.80
2022-12-25T22:15:46.647Z,12.00
2022-12-25T22:18:46.484Z,11.60
2022-12-25T22:19:46.478Z,10.60
2022-12-25T22:20:46.471Z,11.20
2022-12-25T22:21:46.371Z,13.40
2022-12-25T22:22:46.372Z,10.50
2022-12-25T22:23:46.244Z,12.80
2022-12-25T22:24:46.248Z,10.70
2022-12-25T22:25:46.255Z,10.30
2022-12-25T22:26:46.133Z,12.10
2022-12-25T22:27:46.130Z,11.70
2022-12-25T22:28:46.124Z,14.30
2022-12-25T22:29:46.005Z,13.00
2022-12-25T22:30:46.015Z,12.20
2022-12-25T22:32:29.336Z,9.80
2022-12-25T22:33:29.338Z,11.00
2022-12-25T22:34:29.331Z,11.80
2022-12-25T22:35:29.229Z,11.60
2022-12-25T22:36:29.241Z,12.70
2022-12-25T22:37:29.213Z,9.80
2022-12-25T22:38:29.102Z,12.90
2022-12-25T22:39:29.103Z,10.60
2022-12-25T22:40:28.981Z,9.70
2022-12-25T22:41:33.421Z,9.60
2022-12-25T22:42:28.983Z,10.20
2022-12-25T22:44:06.371Z,13.00
2022-12-25T22:44:28.864Z,10.40
2022-12-25T22:45:28.860Z,11.50
2022-12-25T22:46:28.774Z,9.30
2022-12-25T22:47:28.748Z,9.90
2022-12-25T22:48:28.746Z,9.20
2022-12-25T22:49:28.635Z,10.50
2022-12-25T22:50:28.637Z,9.90
2022-12-25T22:51:28.603Z,8.10
2022-12-25T22:52:28.544Z,10.20
2022-12-25T22:53:28.510Z,9.70
2022-12-25T22:54:28.394Z,9.10
2022-12-25T22:55:28.401Z,9.20
2022-12-25T22:56:28.391Z,10.10
2022-12-25T22:57:28.368Z,10.10
2022-12-25T22:58:28.368Z,9.50
2022-12-25T22:59:28.275Z,8.90
2022-12-25T23:00:28.313Z,7.70
2022-12-25T23:01:28.417Z,7.30
2022-12-25T23:02:28.376Z,7.40
2022-12-25T23:03:28.281Z,8.10
2022-12-25T23:04:28.202Z,8.00
2022-12-25T23:05:28.016Z,8.00
2022-12-25T23:06:28.019Z,8.20
2022-12-25T23:07:28.025Z,8.90
2022-12-25T23:08:27.920Z,7.50
2022-12-25T23:09:28.085Z,7.70
2022-12-25T23:10:27.786Z,7.90
2022-12-25T23:11:27.778Z,7.90
2022-12-25T23:12:27.779Z,8.40
2022-12-25T23:13:27.667Z,10.20
2022-12-25T23:14:27.661Z,7.00
2022-12-25T23:15:27.785Z,6.50
2022-12-25T23:16:27.606Z,8.40
2022-12-25T23:17:27.544Z,7.50
2022-12-25T23:18:27.551Z,9.30
2022-12-25T23:19:30.069Z,7.50
2022-12-25T23:20:27.430Z,6.90
2022-12-25T23:21:27.313Z,6.70
2022-12-25T23:22:27.309Z,8.20
2022-12-25T23:23:27.313Z,7.50
2022-12-25T23:24:27.217Z,6.10
2022-12-25T23:25:27.323Z,7.40
2022-12-25T23:26:27.196Z,7.40
2022-12-25T23:27:27.091Z,5.50
2022-12-25T23:28:27.075Z,7.20
2022-12-25T23:29:27.197Z,6.40
2022-12-25T23:30:27.201Z,6.10
2022-12-25T23:31:27.204Z,6.20
2022-12-25T23:32:27.098Z,7.70
2022-12-25T23:33:27.084Z,6.50
2022-12-25T23:34:26.962Z,7.20
2022-12-25T23:35:26.967Z,6.00
2022-12-25T23:36:26.843Z,6.50
2022-12-25T23:37:26.621Z,5.60
2022-12-25T23:38:26.729Z,5.70
2022-12-25T23:39:26.488Z,6.90
2022-12-25T23:40:26.510Z,6.00
2022-12-25T23:41:26.491Z,5.30
2022-12-25T23:42:26.375Z,7.60
2022-12-25T23:43:26.380Z,8.00
2022-12-25T23:44:26.251Z,6.30
2022-12-25T23:45:26.261Z,6.40
2022-12-25T23:46:26.302Z,7.20
2022-12-25T23:47:26.145Z,6.20
2022-12-25T23:48:26.139Z,6.10
2022-12-25T23:49:26.154Z,6.50
